sensor_id;sensor_type;location;lat;lon;timestamp;P1;durP1;ratioP1;P2;durP2;ratioP2
57111;SDS011;42992;49.084;19.300;2023-01-08T00:02:38;31.75;;;19.38;;
57111;SDS011;42992;49.084;19.300;2023-01-08T00:05:23;33.55;;;19.83;;
57111;SDS011;42992;49.084;19.300;2023-01-08T00:07:49;32.25;;;20.08;;
57111;SDS011;42992;49.084;19.300;2023-01-08T00:10:20;34.47;;;20.65;;
57111;SDS011;42992;49.084;19.300;2023-01-08T00:12:45;35.42;;;20.85;;
57111;SDS011;42992;49.084;19.300;2023-01-08T00:15:29;39.17;;;22.70;;
57111;SDS011;42992;49.084;19.300;2023-01-08T00:17:58;39.45;;;22.50;;
57111;SDS011;42992;49.084;19.300;2023-01-08T00:20:45;43.20;;;24.83;;
57111;SDS011;42992;49.084;19.300;2023-01-08T00:23:26;44.92;;;26.02;;
57111;SDS011;42992;49.084;19.300;2023-01-08T00:26:13;51.15;;;26.05;;
57111;SDS011;42992;49.084;19.300;2023-01-08T00:28:48;44.95;;;24.48;;
57111;SDS011;42992;49.084;19.300;2023-01-08T00:31:13;35.03;;;21.25;;
57111;SDS011;42992;49.084;19.300;2023-01-08T00:33:39;42.08;;;22.55;;
57111;SDS011;42992;49.084;19.300;2023-01-08T00:39:10;35.72;;;21.20;;
57111;SDS011;42992;49.084;19.300;2023-01-08T00:44:46;36.58;;;21.65;;
57111;SDS011;42992;49.084;19.300;2023-01-08T00:50:54;33.60;;;20.17;;
57111;SDS011;42992;49.084;19.300;2023-01-08T00:59:31;35.15;;;21.10;;
57111;SDS011;42992;49.084;19.300;2023-01-08T01:01:58;34.95;;;20.80;;
57111;SDS011;42992;49.084;19.300;2023-01-08T01:04:28;36.95;;;21.88;;
57111;SDS011;42992;49.084;19.300;2023-01-08T01:06:54;38.28;;;21.92;;
57111;SDS011;42992;49.084;19.300;2023-01-08T01:09:19;37.63;;;21.83;;
57111;SDS011;42992;49.084;19.300;2023-01-08T01:11:45;34.78;;;21.02;;
57111;SDS011;42992;49.084;19.300;2023-01-08T01:14:15;33.78;;;19.75;;
57111;SDS011;42992;49.084;19.300;2023-01-08T01:16:42;35.88;;;22.17;;
57111;SDS011;42992;49.084;19.300;2023-01-08T01:19:09;33.13;;;20.85;;
57111;SDS011;42992;49.084;19.300;2023-01-08T01:21:35;32.25;;;20.25;;
57111;SDS011;42992;49.084;19.300;2023-01-08T01:24:06;35.20;;;20.73;;
57111;SDS011;42992;49.084;19.300;2023-01-08T01:29:08;38.30;;;22.33;;
57111;SDS011;42992;49.084;19.300;2023-01-08T01:31:34;41.60;;;23.15;;
57111;SDS011;42992;49.084;19.300;2023-01-08T01:34:00;43.30;;;24.77;;
57111;SDS011;42992;49.084;19.300;2023-01-08T01:36:27;45.17;;;24.83;;
57111;SDS011;42992;49.084;19.300;2023-01-08T01:38:54;38.08;;;22.88;;
57111;SDS011;42992;49.084;19.300;2023-01-08T01:43:46;34.05;;;20.63;;
57111;SDS011;42992;49.084;19.300;2023-01-08T01:49:16;38.38;;;21.83;;
57111;SDS011;42992;49.084;19.300;2023-01-08T01:52:04;32.78;;;19.30;;
57111;SDS011;42992;49.084;19.300;2023-01-08T02:53:42;27.10;;;16.90;;
57111;SDS011;42992;49.084;19.300;2023-01-08T02:56:35;31.83;;;19.23;;
57111;SDS011;42992;49.084;19.300;2023-01-08T02:59:45;31.60;;;17.48;;
57111;SDS011;42992;49.084;19.300;2023-01-08T03:05:34;33.08;;;17.98;;
57111;SDS011;42992;49.084;19.300;2023-01-08T03:08:01;31.88;;;19.52;;
57111;SDS011;42992;49.084;19.300;2023-01-08T03:10:47;33.45;;;19.63;;
57111;SDS011;42992;49.084;19.300;2023-01-08T03:20:00;42.83;;;21.77;;
57111;SDS011;42992;49.084;19.300;2023-01-08T03:58:40;30.15;;;16.73;;
57111;SDS011;42992;49.084;19.300;2023-01-08T04:01:41;26.52;;;16.08;;
57111;SDS011;42992;49.084;19.300;2023-01-08T04:04:46;28.73;;;17.02;;
57111;SDS011;42992;49.084;19.300;2023-01-08T04:19:05;33.38;;;18.95;;
57111;SDS011;42992;49.084;19.300;2023-01-08T04:24:44;38.05;;;20.15;;
57111;SDS011;42992;49.084;19.300;2023-01-08T04:27:37;32.13;;;18.25;;
57111;SDS011;42992;49.084;19.300;2023-01-08T04:33:33;30.02;;;17.40;;
57111;SDS011;42992;49.084;19.300;2023-01-08T04:36:40;26.67;;;16.30;;
57111;SDS011;42992;49.084;19.300;2023-01-08T04:39:43;28.00;;;15.88;;
57111;SDS011;42992;49.084;19.300;2023-01-08T04:42:10;25.27;;;14.32;;
57111;SDS011;42992;49.084;19.300;2023-01-08T04:44:54;27.05;;;14.68;;
57111;SDS011;42992;49.084;19.300;2023-01-08T04:47:20;22.95;;;14.77;;
57111;SDS011;42992;49.084;19.300;2023-01-08T05:13:12;22.77;;;14.02;;
57111;SDS011;42992;49.084;19.300;2023-01-08T05:15:39;25.40;;;14.13;;
57111;SDS011;42992;49.084;19.300;2023-01-08T05:21:08;22.95;;;14.73;;
57111;SDS011;42992;49.084;19.300;2023-01-08T05:23:33;25.13;;;15.93;;
57111;SDS011;42992;49.084;19.300;2023-01-08T05:26:10;27.08;;;15.43;;
57111;SDS011;42992;49.084;19.300;2023-01-08T05:28:37;24.48;;;15.23;;
57111;SDS011;42992;49.084;19.300;2023-01-08T05:45:41;26.67;;;14.40;;
57111;SDS011;42992;49.084;19.300;2023-01-08T05:48:17;25.85;;;14.68;;
57111;SDS011;42992;49.084;19.300;2023-01-08T05:51:22;25.35;;;14.90;;
57111;SDS011;42992;49.084;19.300;2023-01-08T05:53:49;27.10;;;15.02;;
57111;SDS011;42992;49.084;19.300;2023-01-08T05:56:15;25.83;;;15.70;;
57111;SDS011;42992;49.084;19.300;2023-01-08T05:58:42;24.38;;;14.43;;
57111;SDS011;42992;49.084;19.300;2023-01-08T06:01:12;25.40;;;14.90;;
57111;SDS011;42992;49.084;19.300;2023-01-08T06:03:58;26.27;;;13.70;;
57111;SDS011;42992;49.084;19.300;2023-01-08T06:06:35;25.75;;;15.35;;
57111;SDS011;42992;49.084;19.300;2023-01-08T06:25:36;27.15;;;14.98;;
57111;SDS011;42992;49.084;19.300;2023-01-08T06:46:04;18.33;;;11.60;;
57111;SDS011;42992;49.084;19.300;2023-01-08T06:48:33;18.95;;;10.95;;
57111;SDS011;42992;49.084;19.300;2023-01-08T06:54:02;21.70;;;13.05;;
57111;SDS011;42992;49.084;19.300;2023-01-08T06:56:51;22.35;;;12.45;;
57111;SDS011;42992;49.084;19.300;2023-01-08T06:59:16;24.30;;;13.30;;
57111;SDS011;42992;49.084;19.300;2023-01-08T07:01:45;22.60;;;13.65;;
57111;SDS011;42992;49.084;19.300;2023-01-08T07:04:29;26.70;;;15.00;;
57111;SDS011;42992;49.084;19.300;2023-01-08T07:06:56;24.35;;;13.80;;
57111;SDS011;42992;49.084;19.300;2023-01-08T07:09:21;24.83;;;14.05;;
57111;SDS011;42992;49.084;19.300;2023-01-08T07:11:47;25.20;;;13.88;;
57111;SDS011;42992;49.084;19.300;2023-01-08T07:14:35;19.38;;;11.70;;
57111;SDS011;42992;49.084;19.300;2023-01-08T07:17:01;19.27;;;11.90;;
